Terminal Aerodrome Forecast
Issued by NWS Dodge City, KS

Home | Current Version | Previous Version | Graphics & Text | Print | Product List | Glossary Off
Versions: 1 2 3 4 5 6 7 8 9 10 11 12 13 14

000
FTUS43 KDDC 150529
TAFDDC
TAF
KDDC 150529Z 1506/1606 24013KT P6SM BKN200
     FM151600 27015G25KT P6SM BKN250
     FM152000 32015G25KT P6SM SCT250
     FM152300 36020G30KT P6SM SCT250=

USA.gov is the U.S. government's official web portal to all federal, state and local government web resources and services.